Hampden Sydney, Virginia
Current Conditions -  °F | °C
As of 9:55 AM on Monday 22 Dec 2014 (Local Time) from KFVX Reporting Station
Drizzle Drizzle  
Wind Chill: 29°   Ceiling: 2800
Heat Index: 36°   Visibility: 3mi
Dew Point: 36°   Wind: 8mph
Humidity: 100%   Direction: 30°NNE
Pressure: 30.23"   Gusts: NA
Location:  37.24°N, 78.46°W
Report Text: KFVX 221455Z AUTO 03007KT 3SM -DZ SCT008 OVC028 02/02 A3023 RMK AO2 P0002 60004 T00200020
Loading
Personal Weather Stations






























Interactive Weather Map New forecast layout! Learn more

10-Day Weather Forecast

Advertisements
Track Severe Weather on mobile